createdAt,value
2024-01-11T00:00:26.293Z,95839.00
2024-01-11T00:01:26.420Z,95841.00
2024-01-11T00:02:26.405Z,95840.00
2024-01-11T00:03:26.367Z,95839.00
2024-01-11T00:04:26.499Z,95838.00
2024-01-11T00:05:26.526Z,95839.00
2024-01-11T00:06:26.549Z,95840.00
2024-01-11T00:07:26.526Z,95839.00
2024-01-11T00:08:26.558Z,95840.00
2024-01-11T00:09:26.613Z,95841.00
2024-01-11T00:10:26.591Z,95838.00
2024-01-11T00:11:26.664Z,95840.00
2024-01-11T00:12:26.727Z,95839.00
2024-01-11T00:13:26.705Z,95840.00
2024-01-11T00:14:26.771Z,95842.00
2024-01-11T00:15:26.753Z,95841.00
2024-01-11T00:16:26.773Z,95839.00
2024-01-11T00:17:26.879Z,95839.00
2024-01-11T00:18:26.940Z,95839.00
2024-01-11T00:19:26.910Z,95838.00
2024-01-11T00:20:26.982Z,95835.00
2024-01-11T00:21:26.981Z,95835.00
2024-01-11T00:22:26.990Z,95836.00
2024-01-11T00:23:27.168Z,95838.00
2024-01-11T00:24:27.833Z,95836.00
2024-01-11T00:25:27.033Z,95837.00
2024-01-11T00:26:27.110Z,95838.00
2024-01-11T00:27:27.117Z,95839.00
2024-01-11T00:28:27.170Z,95838.00
2024-01-11T00:29:27.269Z,95841.00
2024-01-11T00:30:27.191Z,95839.00
2024-01-11T00:31:27.169Z,95839.00
2024-01-11T00:32:27.379Z,95841.00
2024-01-11T00:33:27.393Z,95840.00
2024-01-11T00:34:27.377Z,95842.00
2024-01-11T00:35:27.430Z,95841.00
2024-01-11T00:36:27.384Z,95841.00
2024-01-11T00:37:27.377Z,95841.00
2024-01-11T00:38:27.452Z,95840.00
2024-01-11T00:39:27.448Z,95838.00
2024-01-11T00:40:27.514Z,95838.00
2024-01-11T00:41:27.550Z,95838.00
2024-01-11T00:42:27.608Z,95836.00
2024-01-11T00:43:27.577Z,95834.00
2024-01-11T00:44:27.670Z,95836.00
2024-01-11T00:45:27.653Z,95835.00
2024-01-11T00:46:27.655Z,95834.00
2024-01-11T00:47:27.770Z,95834.00
2024-01-11T00:48:27.799Z,95834.00
2024-01-11T00:49:27.794Z,95833.00
2024-01-11T00:50:27.828Z,95833.00
2024-01-11T00:51:27.774Z,95833.00
2024-01-11T00:52:27.832Z,95832.00
2024-01-11T00:53:27.906Z,95831.00
2024-01-11T00:54:27.893Z,95833.00
2024-01-11T00:55:27.903Z,95833.00
2024-01-11T00:56:27.998Z,95831.00
2024-01-11T00:57:27.978Z,95833.00
2024-01-11T00:58:27.972Z,95833.00
2024-01-11T00:59:28.058Z,95834.00
2024-01-11T01:00:28.036Z,95833.00
2024-01-11T01:01:28.154Z,95833.00
2024-01-11T01:02:28.120Z,95836.00
2024-01-11T01:03:28.186Z,95836.00
2024-01-11T01:04:28.116Z,95837.00
2024-01-11T01:05:28.260Z,95838.00
2024-01-11T01:06:28.281Z,95836.00
2024-01-11T01:07:28.210Z,95838.00
2024-01-11T01:08:28.247Z,95839.00
2024-01-11T01:09:28.244Z,95840.00
2024-01-11T01:10:28.270Z,95841.00
2024-01-11T01:11:28.333Z,95841.00
2024-01-11T01:12:28.267Z,95843.00
2024-01-11T01:13:28.304Z,95842.00
2024-01-11T01:14:28.364Z,95844.00
2024-01-11T01:15:28.300Z,95845.00
2024-01-11T01:16:28.364Z,95846.00
2024-01-11T01:17:28.482Z,95843.00
2024-01-11T01:18:28.431Z,95843.00
2024-01-11T01:19:28.517Z,95845.00
2024-01-11T01:20:28.466Z,95846.00
2024-01-11T01:21:28.430Z,95847.00
2024-01-11T01:22:28.421Z,95849.00
2024-01-11T01:23:28.449Z,95850.00
2024-01-11T01:24:28.460Z,95850.00
2024-01-11T01:25:28.480Z,95850.00
2024-01-11T01:26:28.517Z,95851.00
2024-01-11T01:27:28.486Z,95850.00
2024-01-11T01:28:28.486Z,95851.00
2024-01-11T01:29:28.595Z,95851.00
2024-01-11T01:30:28.521Z,95851.00
2024-01-11T01:31:28.574Z,95852.00
2024-01-11T01:32:28.678Z,95853.00
2024-01-11T01:33:28.818Z,95851.00
2024-01-11T01:34:28.686Z,95850.00
2024-01-11T01:35:28.648Z,95854.00
2024-01-11T01:36:28.596Z,95854.00
2024-01-11T01:37:28.614Z,95852.00
2024-01-11T01:38:28.648Z,95851.00
2024-01-11T01:39:28.648Z,95853.00
2024-01-11T01:40:28.625Z,95851.00
2024-01-11T01:41:28.690Z,95852.00
2024-01-11T01:42:28.652Z,95854.00
2024-01-11T01:43:28.661Z,95854.00
2024-01-11T01:44:28.735Z,95854.00
2024-01-11T01:45:28.704Z,95854.00
2024-01-11T01:46:28.772Z,95856.00
2024-01-11T01:47:28.808Z,95857.00
2024-01-11T01:48:28.899Z,95854.00
2024-01-11T01:49:28.825Z,95856.00
2024-01-11T01:50:28.749Z,95855.00
2024-01-11T01:51:28.825Z,95856.00
2024-01-11T01:52:28.779Z,95857.00
2024-01-11T01:53:28.792Z,95858.00
2024-01-11T01:54:28.825Z,95857.00
2024-01-11T01:55:28.739Z,95858.00
2024-01-11T01:56:28.820Z,95855.00
2024-01-11T01:57:28.831Z,95857.00
2024-01-11T01:58:28.844Z,95857.00
2024-01-11T01:59:28.859Z,95855.00
2024-01-11T02:00:28.806Z,95856.00
2024-01-11T02:01:28.908Z,95854.00
2024-01-11T02:02:28.851Z,95855.00
2024-01-11T02:03:28.881Z,95856.00
2024-01-11T02:04:28.852Z,95854.00
2024-01-11T02:05:28.988Z,95854.00
2024-01-11T02:06:28.923Z,95853.00
2024-01-11T02:07:28.857Z,95852.00
2024-01-11T02:08:28.895Z,95852.00
2024-01-11T02:09:28.847Z,95855.00
2024-01-11T02:10:28.871Z,95855.00
2024-01-11T02:11:28.909Z,95855.00
2024-01-11T02:12:28.852Z,95856.00
2024-01-11T02:13:28.873Z,95856.00
2024-01-11T02:14:28.905Z,95855.00
2024-01-11T02:15:28.886Z,95856.00
2024-01-11T02:16:28.907Z,95857.00
2024-01-11T02:17:29.015Z,95858.00
2024-01-11T02:18:28.943Z,95857.00
2024-01-11T02:19:29.003Z,95858.00
2024-01-11T02:20:28.934Z,95857.00
2024-01-11T02:21:28.900Z,95858.00
2024-01-11T02:22:28.949Z,95858.00
2024-01-11T02:23:29.013Z,95858.00
2024-01-11T02:24:28.956Z,95858.00
2024-01-11T02:25:28.954Z,95859.00
2024-01-11T02:26:28.972Z,95859.00
2024-01-11T02:27:28.968Z,95859.00
2024-01-11T02:28:28.943Z,95860.00
2024-01-11T02:29:29.051Z,95859.00
2024-01-11T02:30:28.955Z,95860.00
2024-01-11T02:31:28.973Z,95861.00
2024-01-11T02:32:29.079Z,95862.00
2024-01-11T02:33:29.155Z,95861.00
2024-01-11T02:34:29.238Z,95862.00
2024-01-11T02:35:29.062Z,95862.00
2024-01-11T02:36:28.938Z,95864.00
2024-01-11T02:37:28.976Z,95862.00
2024-01-11T02:38:29.043Z,95865.00
2024-01-11T02:39:29.048Z,95864.00
2024-01-11T02:40:29.033Z,95863.00
2024-01-11T02:41:29.113Z,95864.00
2024-01-11T02:42:29.072Z,95862.00
2024-01-11T02:43:29.060Z,95860.00
2024-01-11T02:44:29.210Z,95861.00
2024-01-11T02:45:29.117Z,95860.00
2024-01-11T02:46:29.131Z,95860.00
2024-01-11T02:47:29.222Z,95858.00
2024-01-11T02:48:29.209Z,95861.00
2024-01-11T02:49:29.264Z,95859.00
2024-01-11T02:50:29.266Z,95861.00
2024-01-11T02:51:29.247Z,95861.00
2024-01-11T02:52:29.206Z,95861.00
2024-01-11T02:53:29.244Z,95862.00
2024-01-11T02:54:29.240Z,95859.00
2024-01-11T02:55:29.262Z,95859.00
2024-01-11T02:56:29.295Z,95860.00
2024-01-11T02:57:29.310Z,95861.00
2024-01-11T02:58:29.270Z,95857.00
2024-01-11T02:59:29.311Z,95859.00
2024-01-11T03:00:29.336Z,95858.00
2024-01-11T03:01:29.292Z,95860.00
2024-01-11T03:02:29.354Z,95859.00
2024-01-11T03:03:29.402Z,95859.00
2024-01-11T03:04:29.377Z,95859.00
2024-01-11T03:05:29.437Z,95858.00
2024-01-11T03:06:29.465Z,95855.00
2024-01-11T03:07:29.480Z,95855.00
2024-01-11T03:08:29.509Z,95854.00
2024-01-11T03:09:29.546Z,95852.00
2024-01-11T03:10:29.553Z,95854.00
2024-01-11T03:11:29.612Z,95853.00
2024-01-11T03:12:29.641Z,95853.00
2024-01-11T03:13:29.621Z,95853.00
2024-01-11T03:14:29.689Z,95852.00
2024-01-11T03:15:29.681Z,95853.00
2024-01-11T03:16:29.708Z,95853.00
2024-01-11T03:17:29.808Z,95851.00
2024-01-11T03:18:29.775Z,95853.00
2024-01-11T03:19:29.826Z,95851.00
2024-01-11T03:20:29.946Z,95853.00
2024-01-11T03:21:29.843Z,95852.00
2024-01-11T03:22:29.827Z,95850.00
2024-01-11T03:23:29.920Z,95849.00
2024-01-11T03:24:29.915Z,95847.00
2024-01-11T03:25:29.961Z,95847.00
2024-01-11T03:26:30.127Z,95844.00
2024-01-11T03:27:29.982Z,95842.00
2024-01-11T03:28:30.039Z,95841.00
2024-01-11T03:29:30.058Z,95841.00
2024-01-11T03:30:30.094Z,95839.00
2024-01-11T03:31:30.111Z,95842.00
2024-01-11T03:32:30.244Z,95840.00
2024-01-11T03:33:30.259Z,95842.00
2024-01-11T03:34:30.289Z,95843.00
2024-01-11T03:35:30.210Z,95843.00
2024-01-11T03:36:30.175Z,95843.00
2024-01-11T03:37:30.184Z,95844.00
2024-01-11T03:38:30.262Z,95843.00
2024-01-11T03:39:30.903Z,95841.00
2024-01-11T03:40:30.223Z,95841.00
2024-01-11T03:41:30.311Z,95840.00
2024-01-11T03:42:30.299Z,95842.00
2024-01-11T03:43:30.260Z,95839.00
2024-01-11T03:44:30.363Z,95842.00
2024-01-11T03:45:30.286Z,95839.00
2024-01-11T03:46:30.320Z,95838.00
2024-01-11T03:47:30.413Z,95838.00
2024-01-11T03:48:30.412Z,95838.00
2024-01-11T03:49:30.478Z,95837.00
2024-01-11T03:50:30.448Z,95838.00
2024-01-11T03:51:30.403Z,95837.00
2024-01-11T03:52:30.440Z,95836.00
2024-01-11T03:53:30.442Z,95836.00
2024-01-11T03:54:30.492Z,95837.00
2024-01-11T03:55:30.419Z,95836.00
2024-01-11T03:56:30.486Z,95837.00
2024-01-11T03:57:30.477Z,95837.00
2024-01-11T03:58:30.487Z,95836.00
2024-01-11T03:59:30.530Z,95837.00
2024-01-11T04:00:30.578Z,95835.00
2024-01-11T04:01:30.534Z,95834.00
2024-01-11T04:02:30.600Z,95835.00
2024-01-11T04:03:30.655Z,95833.00
2024-01-11T04:04:30.624Z,95833.00
2024-01-11T04:05:30.672Z,95833.00
2024-01-11T04:06:30.735Z,95834.00
2024-01-11T04:07:30.654Z,95836.00
2024-01-11T04:08:30.704Z,95834.00
2024-01-11T04:09:30.715Z,95835.00
2024-01-11T04:10:30.772Z,95834.00
2024-01-11T04:11:30.817Z,95835.00
2024-01-11T04:12:30.820Z,95836.00
2024-01-11T04:13:30.896Z,95836.00
2024-01-11T04:14:31.000Z,95834.00
2024-01-11T04:15:30.958Z,95835.00
2024-01-11T04:16:31.061Z,95836.00
2024-01-11T04:17:31.145Z,95835.00
2024-01-11T04:18:31.201Z,95836.00
2024-01-11T04:19:31.382Z,95836.00
2024-01-11T04:20:31.254Z,95837.00
2024-01-11T04:21:31.220Z,95834.00
2024-01-11T04:22:31.260Z,95834.00
2024-01-11T04:23:31.422Z,95834.00
2024-01-11T04:24:31.332Z,95832.00
2024-01-11T04:25:31.446Z,95831.00
2024-01-11T04:26:31.442Z,95829.00
2024-01-11T04:27:38.679Z,95828.00
2024-01-11T04:28:38.641Z,95829.00
2024-01-11T04:29:38.675Z,95829.00
2024-01-11T04:30:38.736Z,95826.00
2024-01-11T04:31:46.026Z,95827.00
2024-01-11T04:32:46.084Z,95824.00
2024-01-11T04:33:45.968Z,95825.00
2024-01-11T04:34:45.987Z,95824.00
2024-01-11T04:35:45.976Z,95822.00
2024-01-11T04:36:45.932Z,95823.00
2024-01-11T04:37:45.973Z,95823.00
2024-01-11T04:38:45.975Z,95821.00
2024-01-11T04:39:45.980Z,95824.00
2024-01-11T04:40:45.980Z,95823.00
2024-01-11T04:41:46.020Z,95824.00
2024-01-11T04:42:45.973Z,95827.00
2024-01-11T04:43:46.075Z,95825.00
2024-01-11T04:44:46.045Z,95827.00
2024-01-11T04:45:46.046Z,95830.00
2024-01-11T04:46:46.008Z,95830.00
2024-01-11T04:47:46.222Z,95828.00
2024-01-11T04:48:46.038Z,95829.00
2024-01-11T04:49:46.003Z,95828.00
2024-01-11T04:50:46.022Z,95826.00
2024-01-11T04:51:45.984Z,95827.00
2024-01-11T04:52:45.969Z,95828.00
2024-01-11T04:53:46.069Z,95827.00
2024-01-11T04:54:45.968Z,95827.00
2024-01-11T04:55:45.978Z,95825.00
2024-01-11T04:56:46.014Z,95825.00
2024-01-11T04:57:46.039Z,95824.00
2024-01-11T04:58:46.091Z,95826.00
2024-01-11T04:59:46.221Z,95826.00
2024-01-11T05:00:46.253Z,95827.00
2024-01-11T05:01:46.275Z,95828.00
2024-01-11T05:02:46.493Z,95827.00
2024-01-11T05:03:46.422Z,95828.00
2024-01-11T05:04:46.550Z,95827.00
2024-01-11T05:05:46.694Z,95826.00
2024-01-11T05:06:46.732Z,95828.00
2024-01-11T05:07:46.722Z,95828.00
2024-01-11T05:08:46.828Z,95828.00
2024-01-11T05:09:46.893Z,95827.00
2024-01-11T05:10:46.920Z,95825.00
2024-01-11T05:11:47.008Z,95824.00
2024-01-11T05:12:47.059Z,95824.00
2024-01-11T05:13:47.119Z,95823.00
2024-01-11T05:14:47.248Z,95825.00
2024-01-11T05:15:47.278Z,95825.00
2024-01-11T05:16:47.355Z,95824.00
2024-01-11T05:17:47.490Z,95824.00
2024-01-11T05:18:47.560Z,95825.00
2024-01-11T05:19:47.523Z,95825.00
2024-01-11T05:20:47.633Z,95822.00
2024-01-11T05:21:47.659Z,95824.00
2024-01-11T05:22:47.725Z,95822.00
2024-01-11T05:23:47.764Z,95820.00
2024-01-11T05:24:47.870Z,95820.00
2024-01-11T05:25:47.907Z,95819.00
2024-01-11T05:26:48.070Z,95817.00
2024-01-11T05:27:48.069Z,95818.00
2024-01-11T05:28:48.085Z,95819.00
2024-01-11T05:29:48.240Z,95818.00
2024-01-11T05:30:48.251Z,95818.00
2024-01-11T05:31:48.546Z,95818.00
2024-01-11T05:32:48.566Z,95819.00
2024-01-11T05:33:49.311Z,95820.00
2024-01-11T05:34:48.681Z,95816.00
2024-01-11T05:35:48.562Z,95813.00
2024-01-11T05:36:48.646Z,95811.00
2024-01-11T05:37:48.727Z,95812.00
2024-01-11T05:38:48.784Z,95812.00
2024-01-11T05:39:48.824Z,95814.00
2024-01-11T05:40:48.870Z,95813.00
2024-01-11T05:41:49.013Z,95815.00
2024-01-11T05:42:49.013Z,95818.00
2024-01-11T05:43:49.084Z,95819.00
2024-01-11T05:44:49.165Z,95821.00
2024-01-11T05:45:49.269Z,95822.00
2024-01-11T05:46:49.255Z,95823.00
2024-01-11T05:47:49.403Z,95825.00
2024-01-11T05:48:49.470Z,95821.00
2024-01-11T05:49:49.412Z,95823.00
2024-01-11T05:50:49.568Z,95825.00
2024-01-11T05:51:49.517Z,95826.00
2024-01-11T05:52:49.579Z,95826.00
2024-01-11T05:53:49.570Z,95827.00
2024-01-11T05:54:49.607Z,95829.00
2024-01-11T05:55:50.936Z,95830.00
2024-01-11T05:56:49.715Z,95833.00
2024-01-11T05:57:49.728Z,95836.00
2024-01-11T05:58:49.811Z,95834.00
2024-01-11T05:59:49.862Z,95838.00
2024-01-11T06:00:50.599Z,95838.00
2024-01-11T06:02:15.642Z,95840.00
2024-01-11T06:02:50.020Z,95840.00
2024-01-11T06:03:50.068Z,95840.00
2024-01-11T06:04:50.026Z,95839.00
2024-01-11T06:05:50.032Z,95839.00
2024-01-11T06:06:50.037Z,95840.00
2024-01-11T06:07:50.059Z,95839.00
2024-01-11T06:08:50.161Z,95839.00
2024-01-11T06:09:50.034Z,95839.00
2024-01-11T06:10:50.052Z,95840.00
2024-01-11T06:11:50.042Z,95839.00
2024-01-11T06:12:50.080Z,95840.00
2024-01-11T06:13:49.994Z,95840.00
2024-01-11T06:14:50.031Z,95845.00
2024-01-11T06:15:50.120Z,95841.00
2024-01-11T06:16:49.991Z,95839.00
2024-01-11T06:17:50.198Z,95837.00
2024-01-11T06:18:50.128Z,95836.00
2024-01-11T06:19:50.026Z,95836.00
2024-01-11T06:20:50.047Z,95834.00
2024-01-11T06:21:50.052Z,95836.00
2024-01-11T06:22:50.042Z,95835.00
2024-01-11T06:23:50.094Z,95833.00
2024-01-11T06:24:50.055Z,95835.00
2024-01-11T06:25:50.023Z,95832.00
2024-01-11T06:26:50.078Z,95833.00
2024-01-11T06:27:50.083Z,95836.00
2024-01-11T06:28:50.080Z,95836.00
2024-01-11T06:29:50.189Z,95839.00
2024-01-11T06:30:50.142Z,95842.00
2024-01-11T06:31:50.106Z,95837.00
2024-01-11T06:32:50.181Z,95839.00
2024-01-11T06:33:51.655Z,95840.00
2024-01-11T06:34:50.109Z,95842.00
2024-01-11T06:35:51.150Z,95840.00
2024-01-11T06:36:50.042Z,95843.00
2024-01-11T06:37:50.040Z,95844.00
2024-01-11T06:38:50.088Z,95844.00
2024-01-11T06:39:50.049Z,95844.00
2024-01-11T06:40:50.259Z,95838.00
2024-01-11T06:41:50.174Z,95840.00
2024-01-11T06:42:50.283Z,95838.00
2024-01-11T06:43:50.395Z,95839.00
2024-01-11T06:44:50.509Z,95838.00
2024-01-11T06:45:50.506Z,95838.00
2024-01-11T06:47:13.034Z,95845.00
2024-01-11T06:47:50.901Z,95842.00
2024-01-11T06:48:50.570Z,95843.00
2024-01-11T06:49:50.677Z,95842.00
2024-01-11T06:50:52.048Z,95844.00
2024-01-11T06:51:50.368Z,95844.00
2024-01-11T06:52:50.445Z,95841.00
2024-01-11T06:53:50.386Z,95843.00
2024-01-11T06:54:50.389Z,95841.00
2024-01-11T06:55:50.403Z,95845.00
2024-01-11T06:56:50.430Z,95843.00
2024-01-11T06:57:50.517Z,95841.00
2024-01-11T06:58:50.378Z,95843.00
2024-01-11T06:59:50.508Z,95841.00
2024-01-11T07:00:50.882Z,95843.00
2024-01-11T07:01:50.350Z,95843.00
2024-01-11T07:02:50.526Z,95843.00
2024-01-11T07:03:50.422Z,95843.00
2024-01-11T07:04:50.366Z,95850.00
2024-01-11T07:05:50.802Z,95848.00
2024-01-11T07:06:50.420Z,95849.00
2024-01-11T07:07:50.534Z,95849.00
2024-01-11T07:08:50.555Z,95849.00
2024-01-11T07:09:50.558Z,95851.00
2024-01-11T07:10:52.160Z,95851.00
2024-01-11T07:11:50.810Z,95852.00
2024-01-11T07:12:50.783Z,95850.00
2024-01-11T07:13:50.897Z,95850.00
2024-01-11T07:14:50.908Z,95847.00
2024-01-11T07:15:51.184Z,95847.00
2024-01-11T07:16:51.047Z,95845.00
2024-01-11T07:17:51.531Z,95847.00
2024-01-11T07:18:51.563Z,95846.00
2024-01-11T07:19:51.140Z,95848.00
2024-01-11T07:20:51.779Z,95849.00
2024-01-11T07:21:51.266Z,95850.00
2024-01-11T07:22:51.312Z,95850.00
2024-01-11T07:23:51.428Z,95852.00
2024-01-11T07:24:51.433Z,95854.00
2024-01-11T07:25:51.861Z,95854.00
2024-01-11T07:26:51.527Z,95857.00
2024-01-11T07:27:51.677Z,95857.00
2024-01-11T07:28:51.622Z,95857.00
2024-01-11T07:29:51.776Z,95858.00
2024-01-11T07:30:51.915Z,95859.00
2024-01-11T07:31:51.842Z,95859.00
2024-01-11T07:32:52.008Z,95860.00
2024-01-11T07:33:52.580Z,95866.00
2024-01-11T07:34:51.993Z,95868.00
2024-01-11T07:35:52.409Z,95865.00
2024-01-11T07:36:52.398Z,95867.00
2024-01-11T07:37:52.137Z,95869.00
2024-01-11T07:38:52.188Z,95871.00
2024-01-11T07:39:52.158Z,95872.00
2024-01-11T07:40:52.821Z,95877.00
2024-01-11T07:41:52.438Z,95878.00
2024-01-11T07:42:52.301Z,95879.00
2024-01-11T07:43:54.682Z,95878.00
2024-01-11T07:44:52.476Z,95881.00
2024-01-11T07:45:52.341Z,95882.00
2024-01-11T07:46:54.535Z,95883.00
2024-01-11T07:47:53.265Z,95883.00
2024-01-11T07:48:52.826Z,95883.00
2024-01-11T07:49:52.841Z,95884.00
2024-01-11T07:50:52.440Z,95886.00
2024-01-11T07:51:52.310Z,95887.00
2024-01-11T07:52:52.383Z,95888.00
2024-01-11T07:53:52.785Z,95889.00
2024-01-11T07:54:52.433Z,95892.00
2024-01-11T07:55:52.466Z,95893.00
2024-01-11T07:56:52.447Z,95895.00
2024-01-11T07:57:52.355Z,95894.00
2024-01-11T07:58:53.135Z,95897.00
2024-01-11T07:59:53.082Z,95898.00
2024-01-11T08:00:52.512Z,95899.00
2024-01-11T08:01:52.436Z,95901.00
2024-01-11T08:02:53.014Z,95903.00
2024-01-11T08:03:53.302Z,95901.00
2024-01-11T08:04:53.065Z,95903.00
2024-01-11T08:05:52.508Z,95903.00
2024-01-11T08:06:53.080Z,95905.00
2024-01-11T08:07:52.384Z,95910.00
2024-01-11T08:08:53.380Z,95907.00
2024-01-11T08:10:18.650Z,95910.00
2024-01-11T08:10:52.756Z,95907.00
2024-01-11T08:11:53.662Z,95910.00
2024-01-11T08:12:53.383Z,95909.00
2024-01-11T08:13:52.593Z,95907.00
2024-01-11T08:14:52.690Z,95907.00
2024-01-11T08:15:52.983Z,95910.00
2024-01-11T08:16:52.992Z,95915.00
2024-01-11T08:17:52.792Z,95920.00
2024-01-11T08:18:52.660Z,95920.00
2024-01-11T08:19:53.581Z,95922.00
2024-01-11T08:20:52.720Z,95921.00
2024-01-11T08:21:53.083Z,95922.00
2024-01-11T08:22:52.640Z,95922.00
2024-01-11T08:23:52.711Z,95922.00
2024-01-11T08:24:53.250Z,95922.00
2024-01-11T08:25:52.748Z,95920.00
2024-01-11T08:26:53.074Z,95921.00
2024-01-11T08:27:53.560Z,95920.00
2024-01-11T08:28:53.028Z,95922.00
2024-01-11T08:29:52.671Z,95917.00
2024-01-11T08:30:53.656Z,95918.00
2024-01-11T08:31:53.599Z,95917.00
2024-01-11T08:32:52.993Z,95916.00
2024-01-11T08:33:56.442Z,95916.00
2024-01-11T08:34:53.314Z,95912.00
2024-01-11T08:35:53.270Z,95915.00
2024-01-11T08:36:53.326Z,95916.00
2024-01-11T08:37:53.653Z,95918.00
2024-01-11T08:38:53.299Z,95921.00
2024-01-11T08:39:53.795Z,95920.00
2024-01-11T08:40:53.680Z,95918.00
2024-01-11T08:41:52.827Z,95916.00
2024-01-11T08:42:52.822Z,95917.00
2024-01-11T08:43:52.817Z,95915.00
2024-01-11T08:44:52.828Z,95912.00
2024-01-11T08:45:52.945Z,95911.00
2024-01-11T08:46:52.849Z,95905.00
2024-01-11T08:47:52.900Z,95907.00
2024-01-11T08:48:52.964Z,95905.00
2024-01-11T08:49:52.793Z,95908.00
2024-01-11T08:50:52.957Z,95908.00
2024-01-11T08:51:52.822Z,95909.00
2024-01-11T08:52:52.899Z,95910.00
2024-01-11T08:53:52.893Z,95912.00
2024-01-11T08:54:52.953Z,95912.00
2024-01-11T08:55:52.905Z,95917.00
2024-01-11T08:56:53.287Z,95908.00
2024-01-11T08:57:53.219Z,95908.00
2024-01-11T08:59:15.479Z,95910.00
2024-01-11T08:59:52.868Z,95909.00
2024-01-11T09:00:52.908Z,95906.00
2024-01-11T09:01:57.823Z,95908.00
2024-01-11T09:02:53.844Z,95908.00
2024-01-11T09:03:52.916Z,95908.00
2024-01-11T09:04:52.881Z,95911.00
2024-01-11T09:05:53.652Z,95909.00
2024-01-11T09:06:52.842Z,95911.00
2024-01-11T09:07:54.423Z,95912.00
2024-01-11T09:08:53.243Z,95912.00
2024-01-11T09:09:56.777Z,95913.00
2024-01-11T09:10:52.845Z,95913.00
2024-01-11T09:11:52.811Z,95915.00
2024-01-11T09:12:52.882Z,95914.00
2024-01-11T09:13:52.821Z,95914.00
2024-01-11T09:14:52.996Z,95914.00
2024-01-11T09:15:52.887Z,95915.00
2024-01-11T09:16:52.860Z,95915.00
2024-01-11T09:17:53.064Z,95915.00
2024-01-11T09:18:52.902Z,95915.00
2024-01-11T09:19:52.934Z,95917.00
2024-01-11T09:20:53.839Z,95917.00
2024-01-11T09:21:53.244Z,95920.00
2024-01-11T09:22:53.242Z,95917.00
2024-01-11T09:23:53.181Z,95915.00
2024-01-11T09:24:52.856Z,95911.00
2024-01-11T09:25:52.847Z,95911.00
2024-01-11T09:26:53.323Z,95909.00
2024-01-11T09:27:52.878Z,95907.00
2024-01-11T09:28:52.873Z,95907.00
2024-01-11T09:29:55.628Z,95910.00
2024-01-11T09:30:52.986Z,95910.00
2024-01-11T09:31:53.289Z,95908.00
2024-01-11T09:32:53.149Z,95910.00
2024-01-11T09:33:53.044Z,95908.00
2024-01-11T09:34:53.055Z,95909.00
2024-01-11T09:35:52.999Z,95910.00
2024-01-11T09:36:53.285Z,95908.00
2024-01-11T09:37:53.667Z,95910.00
2024-01-11T09:38:53.002Z,95910.00
2024-01-11T09:39:53.014Z,95908.00
2024-01-11T09:40:53.326Z,95907.00
2024-01-11T09:41:52.926Z,95905.00
2024-01-11T09:42:53.689Z,95904.00
2024-01-11T09:43:52.929Z,95902.00
2024-01-11T09:44:52.979Z,95904.00
2024-01-11T09:45:52.888Z,95907.00
2024-01-11T09:46:53.248Z,95907.00
2024-01-11T09:47:52.934Z,95904.00
2024-01-11T09:48:52.997Z,95906.00
2024-01-11T09:49:52.978Z,95902.00
2024-01-11T09:50:52.924Z,95905.00
2024-01-11T09:51:53.279Z,95906.00
2024-01-11T09:52:52.881Z,95904.00
2024-01-11T09:53:54.830Z,95910.00
2024-01-11T09:54:53.013Z,95906.00
2024-01-11T09:55:52.895Z,95908.00
2024-01-11T09:56:53.381Z,95904.00
2024-01-11T09:57:52.953Z,95905.00
2024-01-11T09:58:52.981Z,95904.00
2024-01-11T09:59:53.779Z,95906.00
2024-01-11T10:00:53.107Z,95904.00
2024-01-11T10:01:53.306Z,95904.00
2024-01-11T10:02:53.744Z,95902.00
2024-01-11T10:03:53.339Z,95905.00
2024-01-11T10:04:53.566Z,95912.00
2024-01-11T10:05:53.273Z,95912.00
2024-01-11T10:06:53.606Z,95912.00
2024-01-11T10:07:53.223Z,95908.00
2024-01-11T10:08:53.386Z,95906.00
2024-01-11T10:09:54.151Z,95903.00
2024-01-11T10:10:53.909Z,95905.00
2024-01-11T10:11:53.619Z,95901.00
2024-01-11T10:12:53.428Z,95901.00
2024-01-11T10:13:54.147Z,95899.00
2024-01-11T10:14:54.059Z,95897.00
2024-01-11T10:15:53.841Z,95897.00
2024-01-11T10:16:53.549Z,95895.00
2024-01-11T10:17:54.507Z,95892.00
2024-01-11T10:18:54.338Z,95892.00
2024-01-11T10:19:54.232Z,95894.00
2024-01-11T10:20:53.911Z,95893.00
2024-01-11T10:21:54.953Z,95893.00
2024-01-11T10:22:53.690Z,95892.00
2024-01-11T10:23:53.709Z,95890.00
2024-01-11T10:24:53.823Z,95888.00
2024-01-11T10:25:54.007Z,95888.00
2024-01-11T10:26:54.453Z,95886.00
2024-01-11T10:27:55.404Z,95883.00
2024-01-11T10:28:53.938Z,95882.00
2024-01-11T10:29:54.399Z,95882.00
2024-01-11T10:30:54.613Z,95878.00
2024-01-11T10:31:56.760Z,95880.00
2024-01-11T10:32:55.203Z,95879.00
2024-01-11T10:33:54.257Z,95877.00
2024-01-11T10:34:54.456Z,95877.00
2024-01-11T10:35:54.296Z,95877.00
2024-01-11T10:36:55.203Z,95872.00
2024-01-11T10:37:54.279Z,95871.00
2024-01-11T10:38:54.100Z,95867.00
2024-01-11T10:39:54.119Z,95867.00
2024-01-11T10:40:54.257Z,95863.00
2024-01-11T10:41:54.569Z,95864.00
2024-01-11T10:42:54.137Z,95865.00
2024-01-11T10:43:54.253Z,95860.00
2024-01-11T10:44:54.269Z,95861.00
2024-01-11T10:45:54.268Z,95864.00
2024-01-11T10:46:54.338Z,95862.00
2024-01-11T10:47:54.808Z,95863.00
2024-01-11T10:48:54.395Z,95861.00
2024-01-11T10:49:54.588Z,95859.00
2024-01-11T10:50:54.193Z,95855.00
2024-01-11T10:51:54.587Z,95852.00
2024-01-11T10:52:54.146Z,95854.00
2024-01-11T10:53:54.536Z,95851.00
2024-01-11T10:54:54.120Z,95849.00
2024-01-11T10:55:54.424Z,95851.00
2024-01-11T10:56:54.187Z,95850.00
2024-01-11T10:57:55.665Z,95853.00
2024-01-11T10:58:54.119Z,95855.00
2024-01-11T10:59:54.201Z,95856.00
2024-01-11T11:02:02.917Z,95854.00
2024-01-11T11:03:02.616Z,95854.00
2024-01-11T11:04:02.356Z,95856.00
2024-01-11T11:05:02.491Z,95857.00
2024-01-11T11:06:02.508Z,95852.00
2024-01-11T11:07:02.491Z,95854.00
2024-01-11T11:08:03.290Z,95854.00
2024-01-11T11:09:03.118Z,95852.00
2024-01-11T11:10:03.259Z,95851.00
2024-01-11T11:11:02.779Z,95851.00
2024-01-11T11:12:02.433Z,95851.00
2024-01-11T11:13:02.757Z,95851.00
2024-01-11T11:14:02.455Z,95853.00
2024-01-11T11:15:02.386Z,95853.00
2024-01-11T11:16:02.550Z,95855.00
2024-01-11T11:17:02.725Z,95852.00
2024-01-11T11:18:02.400Z,95852.00
2024-01-11T11:19:02.430Z,95853.00
2024-01-11T11:20:02.405Z,95853.00
2024-01-11T11:21:02.314Z,95848.00
2024-01-11T11:22:02.350Z,95846.00
2024-01-11T11:23:03.334Z,95846.00
2024-01-11T11:24:02.427Z,95842.00
2024-01-11T11:25:02.364Z,95840.00
2024-01-11T11:26:02.340Z,95838.00
2024-01-11T11:27:13.612Z,95837.00
2024-01-11T11:28:02.317Z,95839.00
2024-01-11T11:29:03.299Z,95839.00
2024-01-11T11:30:02.640Z,95838.00
2024-01-11T11:31:02.339Z,95840.00
2024-01-11T11:32:02.545Z,95833.00
2024-01-11T11:33:02.425Z,95832.00
2024-01-11T11:34:03.912Z,95833.00
2024-01-11T11:35:02.340Z,95833.00
2024-01-11T11:36:02.388Z,95833.00
2024-01-11T11:37:02.739Z,95835.00
2024-01-11T11:38:02.362Z,95836.00
2024-01-11T11:39:02.404Z,95839.00
2024-01-11T11:40:02.422Z,95836.00
2024-01-11T11:41:02.764Z,95833.00
2024-01-11T11:42:02.454Z,95833.00
2024-01-11T11:43:03.273Z,95830.00
2024-01-11T11:44:02.561Z,95827.00
2024-01-11T11:45:04.136Z,95821.00
2024-01-11T11:46:04.188Z,95818.00